Bernard, Iowa
Current Conditions -  °F | °C
As of 8:53 AM on Tuesday 21 Oct 2014 (Local Time) from KDBQ Reporting Station
Clear Clear  
Wind Chill: 44°   Ceiling: Unl
Heat Index: 46°   Visibility: 10mi
Dew Point: 41°   Wind: 5mph
Humidity: 83%   Direction: 10°N
Pressure: 30.19"   Gusts: NA
Location:  42.31°N, 90.83°W
Report Text: KDBQ 211353Z 01004KT 10SM CLR 08/05 A3019 RMK AO2 SLP228 T00780050 $
Loading
Personal Weather Stations






























Interactive Weather Map
Tropical Storm Tracking
New forecast layout! Learn more

10-Day Weather Forecast

Advertisements
Track Severe Weather on mobile